Chemroad Wing — 3EAB8 — position and weather

sailwx.info

Track history (hours):
 
Tides and Currents Weather Stations Pressure Air Temp Water Temp Dewpoint Dewpoint Depression Visibility Wind Speed Wind Dir Waves Ship Positions

Chemroad Wing

Last reported at 2016-May-02 22:24 UTC. Time now 2016-May-04 01:57 UTC.
Position N 38°58' W 009°57'.

Length 170 m; draft 9.4 m.

Type: Ship (hazmat cat B). MMSI: 357740000.

Date/timePositionNaut miles runAvg speedWind from/ knotsBaromVisibWave heightAir tempDewpointWater temp
2016-May-02 22:24N 38°58' W 009°57'1113.4
2016-May-02 21:33N 38°47' W 009°57'1313.3
2016-May-02 20:33N 38°34' W 009°54'1313.1
2016-May-02 19:33N 38°21' W 009°50'1313.1
2016-May-02 18:33N 38°08' W 009°47'1313.1
2016-May-02 17:33N 37°55' W 009°43'1313.3
2016-May-02 16:33N 37°42' W 009°39'1313.3
2016-May-02 15:33N 37°29' W 009°35'1413.5
2016-May-02 14:33N 37°16' W 009°31'1413.0
2016-May-02 13:31N 37°03' W 009°28'19913.3
2016-May-01 22:33N 35°59' W 005°34'1010.5
2016-May-01 21:33N 36°06' W 005°24'1 0.9
2016-May-01 20:33N 36°06' W 005°25'0 0.0
2016-May-01 19:30N 36°06' W 005°25'0 0.0
2016-May-01 18:33N 36°06' W 005°25'0 0.1
2016-May-01 17:33N 36°06' W 005°25'1 0.6
2016-May-01 16:33N 36°07' W 005°24'3 0.2
2016-Apr-30 20:15N 36°10' W 005°24'4 5.6
2016-Apr-30 19:33N 36°06' W 005°23'3 2.1
2016-Apr-30 18:23N 36°04' W 005°22'8 9.2
2016-Apr-30 17:31N 36°04' W 005°12'22013.6
2016-Apr-30 01:24N 37°20' W 000°55'1214.7
2016-Apr-30 00:33N 37°28' W 000°43'1414.3
2016-Apr-29 23:33N 37°38' W 000°30'1414.4
2016-Apr-29 22:33N 37°50' W 000°20'14614.2
2016-Apr-29 12:14N 40°03' E 000°57'914.0
2016-Apr-29 11:33N 40°13' E 001°00'1614.1
2016-Apr-29 10:25N 40°28' E 001°04'53 2.2
2016-Apr-28 10:33N 41°03' E 001°57'1514.6
2016-Apr-28 09:33N 41°04' E 002°17'1514.5
2016-Apr-28 08:33N 41°06' E 002°36'1414.2
2016-Apr-28 07:33N 41°08' E 002°54'28312.9
2016-Apr-27 09:33N 43°46' E 008°13'1312.9
2016-Apr-27 08:32N 43°56' E 008°25'1313.0
2016-Apr-27 07:33N 44°06' E 008°35'1313.3
2016-Apr-27 06:33N 44°18' E 008°43'9 0.4
2016-Apr-26 09:33N 44°25' E 008°50'4 4.0
2016-Apr-26 08:33N 44°22' E 008°47'1111.0
2016-Apr-26 07:33N 44°12' E 008°54'1413.8
2016-Apr-26 06:33N 44°00' E 009°04'1413.6
2016-Apr-26 05:34N 43°49' E 009°14'1313.2
2016-Apr-26 04:33N 43°38' E 009°24'1313.0
2016-Apr-26 03:33N 43°26' E 009°31'1413.6
2016-Apr-26 02:33N 43°13' E 009°35'36712.2
2016-Apr-24 20:26N 38°57' E 015°24'1112.6
2016-Apr-24 19:33N 38°47' E 015°29'1312.6
2016-Apr-24 18:33N 38°35' E 015°35'1312.6
2016-Apr-24 17:33N 38°23' E 015°40'1110.5
2016-Apr-24 16:33N 38°13' E 015°37'1212.4
2016-Apr-24 15:33N 38°01' E 015°36'1211.7
2016-Apr-24 14:33N 37°50' E 015°40'1413.5
2016-Apr-24 13:33N 37°43' E 015°55'1313.2
2016-Apr-24 12:33N 37°36' E 016°09'  
Track history (hours):
 
Tides and Currents Weather Stations Pressure Air Temp Water Temp Dewpoint Dewpoint Depression Visibility Wind Speed Wind Dir Waves Ship Positions

Chemroad Wing

Last reported at 2016-May-02 22:24 UTC. Time now 2016-May-04 01:57 UTC.
Position N 38°58' W 009°57'.

Length 170 m; draft 9.4 m.

Type: Ship (hazmat cat B). MMSI: 357740000.

Date/timePositionNaut miles runAvg speedWind from/ knotsBaromVisibWave heightAir tempDewpointWater temp
2016-May-02 22:24N 38°58' W 009°57'1113.4
2016-May-02 21:33N 38°47' W 009°57'1313.3
2016-May-02 20:33N 38°34' W 009°54'1313.1
2016-May-02 19:33N 38°21' W 009°50'1313.1
2016-May-02 18:33N 38°08' W 009°47'1313.1
2016-May-02 17:33N 37°55' W 009°43'1313.3
2016-May-02 16:33N 37°42' W 009°39'1313.3
2016-May-02 15:33N 37°29' W 009°35'1413.5
2016-May-02 14:33N 37°16' W 009°31'1413.0
2016-May-02 13:31N 37°03' W 009°28'19913.3
2016-May-01 22:33N 35°59' W 005°34'1010.5
2016-May-01 21:33N 36°06' W 005°24'1 0.9
2016-May-01 20:33N 36°06' W 005°25'0 0.0
2016-May-01 19:30N 36°06' W 005°25'0 0.0
2016-May-01 18:33N 36°06' W 005°25'0 0.1
2016-May-01 17:33N 36°06' W 005°25'1 0.6
2016-May-01 16:33N 36°07' W 005°24'3 0.2
2016-Apr-30 20:15N 36°10' W 005°24'4 5.6
2016-Apr-30 19:33N 36°06' W 005°23'3 2.1
2016-Apr-30 18:23N 36°04' W 005°22'8 9.2
2016-Apr-30 17:31N 36°04' W 005°12'22013.6
2016-Apr-30 01:24N 37°20' W 000°55'1214.7
2016-Apr-30 00:33N 37°28' W 000°43'1414.3
2016-Apr-29 23:33N 37°38' W 000°30'1414.4
2016-Apr-29 22:33N 37°50' W 000°20'14614.2
2016-Apr-29 12:14N 40°03' E 000°57'914.0
2016-Apr-29 11:33N 40°13' E 001°00'1614.1
2016-Apr-29 10:25N 40°28' E 001°04'53 2.2
2016-Apr-28 10:33N 41°03' E 001°57'1514.6
2016-Apr-28 09:33N 41°04' E 002°17'1514.5
2016-Apr-28 08:33N 41°06' E 002°36'1414.2
2016-Apr-28 07:33N 41°08' E 002°54'28312.9
2016-Apr-27 09:33N 43°46' E 008°13'1312.9
2016-Apr-27 08:32N 43°56' E 008°25'1313.0
2016-Apr-27 07:33N 44°06' E 008°35'1313.3
2016-Apr-27 06:33N 44°18' E 008°43'9 0.4
2016-Apr-26 09:33N 44°25' E 008°50'4 4.0
2016-Apr-26 08:33N 44°22' E 008°47'1111.0
2016-Apr-26 07:33N 44°12' E 008°54'1413.8
2016-Apr-26 06:33N 44°00' E 009°04'1413.6
2016-Apr-26 05:34N 43°49' E 009°14'1313.2
2016-Apr-26 04:33N 43°38' E 009°24'1313.0
2016-Apr-26 03:33N 43°26' E 009°31'1413.6
2016-Apr-26 02:33N 43°13' E 009°35'36712.2
2016-Apr-24 20:26N 38°57' E 015°24'1112.6
2016-Apr-24 19:33N 38°47' E 015°29'1312.6
2016-Apr-24 18:33N 38°35' E 015°35'1312.6
2016-Apr-24 17:33N 38°23' E 015°40'1110.5
2016-Apr-24 16:33N 38°13' E 015°37'1212.4
2016-Apr-24 15:33N 38°01' E 015°36'1211.7
2016-Apr-24 14:33N 37°50' E 015°40'1413.5
2016-Apr-24 13:33N 37°43' E 015°55'1313.2
2016-Apr-24 12:33N 37°36' E 016°09'  

Dump ship's entire track history